Time;durP1;ratioP1;P1;durP2;ratioP2;P2;SDS_P1;SDS_P2;PMS_P1;PMS_P2;Temp;Humidity;BMP_temperature;BMP_pressure;BME280_temperature;BME280_humidity;BME280_pressure;Samples;Min_cycle;Max_cycle;Signal;HPM_P1;HPM_P2
2023/09/13 00:00:56;;;;;;;;;;;;;;;-144.99;100.00;52311.53;5005506;28;19997;-69
2023/09/13 00:03:22;;;;;;;;;;;;;;;-144.99;100.00;52293.19;5006538;28;20511;-68
2023/09/13 00:05:49;;;;;;;;;;;;;;;-144.99;100.00;52278.91;5006987;28;20032;-69
2023/09/13 00:08:15;;;;;;;;;;;;;;;-144.99;100.00;52323.75;5007524;28;20368;-69
2023/09/13 00:10:44;;;;;;;;;;;;;;;-144.99;100.00;52333.94;5009341;28;19949;-68
2023/09/13 00:13:10;;;;;;;;;;;;;;;-144.99;100.00;52333.94;5007700;28;20051;-68
2023/09/13 00:15:41;;;;;;;;;;;;;;;-144.99;100.00;52289.13;5011786;28;19937;-68
2023/09/13 00:18:08;;;;;;;;;;;;;;;-144.99;100.00;52311.53;5009394;28;20077;-67
2023/09/13 00:20:35;;;;;;;;;;;;;;;-144.99;100.00;52321.72;5009865;28;20034;-67
2023/09/13 00:23:01;;;;;;;;;;;;;;;-144.99;100.00;52321.72;5011513;28;19970;-68
2023/09/13 00:25:28;;;;;;;;;;;;;;;-144.99;100.00;52297.25;5010443;28;20013;-66
2023/09/13 00:27:54;;;;;;;;;;;;;;;-144.99;100.00;52307.47;5012573;28;19963;-65
2023/09/13 00:30:21;;;;;;;;;;;;;;;-144.99;100.00;52338.03;5011625;28;19942;-66
2023/09/13 00:32:47;;;;;;;;;;;;;;;-144.99;100.00;52301.34;5017841;28;19969;-67
2023/09/13 00:35:15;;;;;;;;;;;;;;;-144.99;100.00;52352.28;5016864;28;20008;-66
2023/09/13 00:37:42;;;;;;;;;;;;;;;-144.99;100.00;52336.00;5020088;28;20004;-65
2023/09/13 00:40:09;;;;;;;;;;;;;;;-144.99;100.00;52325.81;5017996;28;20048;-64
2023/09/13 00:42:35;;;;;;;;;;;;;;;-144.99;100.00;52291.16;5010410;28;20269;-62
2023/09/13 00:45:02;;;;;;;;;;;;;;;-144.99;100.00;52325.81;5020083;28;20002;-62
2023/09/13 00:47:28;;;;;;;;;;;;;;;-144.99;100.00;52319.69;5013401;28;20017;-63
2023/09/13 00:49:55;;;;;;;;;;;;;;;-144.99;100.00;52297.25;5019579;28;20038;-62
2023/09/13 00:52:23;;;;;;;;;;;;;;;-144.99;100.00;52289.13;5023873;28;20003;-63
2023/09/13 00:54:49;;;;;;;;;;;;;;;-144.99;100.00;52333.94;5018782;28;20027;-63
2023/09/13 00:57:16;;;;;;;;;;;;;;;-144.99;100.00;52329.88;5010868;28;19983;-65
2023/09/13 00:59:43;;;;;;;;;;;;;;;-144.99;100.00;52325.81;5009930;28;20457;-64
2023/09/13 01:02:09;;;;;;;;;;;;;;;-144.99;100.00;52360.44;5015692;28;19943;-63
2023/09/13 01:04:39;;;;;;;;;;;;;;;-144.99;100.00;52350.25;5015743;28;20006;-65
2023/09/13 01:07:07;;;;;;;;;;;;;;;-144.99;100.00;52311.53;5012085;28;20011;-65
2023/09/13 01:09:35;;;;;;;;;;;;;;;-144.99;100.00;52305.41;5010704;28;19982;-64
2023/09/13 01:12:02;;;;;;;;;;;;;;;-144.99;100.00;52323.75;5009741;28;20496;-65
2023/09/13 01:14:28;;;;;;;;;;;;;;;-144.99;100.00;52289.13;5009045;28;19960;-63
2023/09/13 01:16:58;;;;;;;;;;;;;;;-144.99;100.00;52295.22;5008284;28;19948;-64
2023/09/13 01:19:39;;;;;;;;;;;;;;;-144.99;100.00;52344.16;5007628;28;19945;-65
2023/09/13 01:22:14;;;;;;;;;;;;;;;-144.99;100.00;52313.56;5007232;28;20377;-68
2023/09/13 01:24:52;;;;;;;;;;;;;;;-144.99;100.00;52321.72;5007577;28;20002;-66
2023/09/13 01:27:37;;;;;;;;;;;;;;;-144.99;100.00;52268.72;5004907;28;20057;-66
2023/09/13 01:30:07;;;;;;;;;;;;;;;-144.99;100.00;52317.66;5005234;28;19945;-65
2023/09/13 01:32:34;;;;;;;;;;;;;;;-144.99;100.00;52321.72;5006685;28;20003;-65
2023/09/13 01:35:00;;;;;;;;;;;;;;;-144.99;100.00;52329.88;5010187;28;20287;-65
2023/09/13 01:37:27;;;;;;;;;;;;;;;-144.99;100.00;52289.13;5005920;28;20410;-65
2023/09/13 01:39:53;;;;;;;;;;;;;;;-144.99;100.00;52301.34;5009738;28;19953;-65
2023/09/13 01:42:20;;;;;;;;;;;;;;;-144.99;100.00;52315.59;5008254;28;20049;-65
2023/09/13 01:44:47;;;;;;;;;;;;;;;-144.99;100.00;52321.72;5009589;28;20549;-65
2023/09/13 01:47:15;;;;;;;;;;;;;;;-144.99;100.00;52325.81;5003679;28;20066;-64
2023/09/13 01:49:43;;;;;;;;;;;;;;;-144.99;100.00;52317.66;5008320;28;20057;-65
2023/09/13 01:52:09;;;;;;;;;;;;;;;-144.99;100.00;52329.88;5009811;28;20006;-65
2023/09/13 01:54:36;;;;;;;;;;;;;;;-144.99;100.00;52285.03;5007341;28;19950;-64
2023/09/13 01:57:03;;;;;;;;;;;;;;;-144.99;100.00;52325.81;5007528;28;19947;-64
2023/09/13 01:59:32;;;;;;;;;;;;;;;-144.99;100.00;52313.56;5006364;28;19943;-65
2023/09/13 02:01:58;;;;;;;;;;;;;;;-144.99;100.00;52346.19;5009944;28;19993;-68
2023/09/13 02:04:31;;;;;;;;;;;;;;;-144.99;100.00;52287.06;5008581;28;19965;-67
2023/09/13 02:06:58;;;;;;;;;;;;;;;-144.99;100.00;52319.69;5009018;28;19953;-67
2023/09/13 02:09:24;;;;;;;;;;;;;;;-144.99;100.00;52338.03;5005933;28;20132;-68
2023/09/13 02:11:51;;;;;;;;;;;;;;;-144.99;100.00;52362.50;5009242;28;20011;-67
2023/09/13 02:14:17;;;;;;;;;;;;;;;-144.99;100.00;52325.81;5008603;28;20010;-67
2023/09/13 02:16:44;;;;;;;;;;;;;;;-144.99;100.00;52297.25;5008122;28;20031;-67
2023/09/13 02:19:10;;;;;;;;;;;;;;;-144.99;100.00;52321.72;5006123;28;20268;-66
2023/09/13 02:21:38;;;;;;;;;;;;;;;-144.99;100.00;52317.66;5007551;28;20357;-65
2023/09/13 02:24:05;;;;;;;;;;;;;;;-144.99;100.00;52297.25;5017159;28;20010;-65
2023/09/13 02:26:31;;;;;;;;;;;;;;;-144.99;100.00;52338.03;5003569;28;20596;-63
2023/09/13 02:28:58;;;;;;;;;;;;;;;-144.99;100.00;52329.88;5011642;28;19939;-66
2023/09/13 02:31:25;;;;;;;;;;;;;;;-144.99;100.00;52327.84;5018995;28;19953;-64
2023/09/13 02:33:52;;;;;;;;;;;;;;;-144.99;100.00;52350.25;5021954;28;19967;-65
2023/09/13 02:36:18;;;;;;;;;;;;;;;-144.99;100.00;52333.94;5020713;28;20055;-65
2023/09/13 02:38:46;;;;;;;;;;;;;;;-144.99;100.00;52329.88;5013288;28;19946;-62
2023/09/13 02:41:13;;;;;;;;;;;;;;;-144.99;100.00;52333.94;5019808;28;20374;-63
2023/09/13 02:43:40;;;;;;;;;;;;;;;-144.99;100.00;52350.25;5015083;28;20003;-63
2023/09/13 02:46:06;;;;;;;;;;;;;;;-144.99;100.00;52325.81;5008892;28;19975;-62
2023/09/13 02:48:33;;;;;;;;;;;;;;;-144.99;100.00;52307.47;5009252;28;19990;-65
2023/09/13 02:50:59;;;;;;;;;;;;;;;-144.99;100.00;52338.03;5013777;28;19986;-63
2023/09/13 02:53:25;;;;;;;;;;;;;;;-144.99;100.00;52354.34;5004583;28;19975;-63
2023/09/13 02:55:53;;;;;;;;;;;;;;;-144.99;100.00;52336.00;5008810;28;19968;-62
2023/09/13 02:58:20;;;;;;;;;;;;;;;-144.99;100.00;52350.25;5008666;28;20004;-62
2023/09/13 03:00:46;;;;;;;;;;;;;;;-144.99;100.00;52323.75;5005951;28;19976;-64
2023/09/13 03:03:13;;;;;;;;;;;;;;;-144.99;100.00;52370.63;5008713;28;19987;-62
2023/09/13 03:05:39;;;;;;;;;;;;;;;-144.99;100.00;52313.56;5009127;28;20015;-63
2023/09/13 03:08:06;;;;;;;;;;;;;;;-144.99;100.00;52305.41;5008591;28;19987;-62
2023/09/13 03:10:35;;;;;;;;;;;;;;;-144.99;100.00;52329.88;5005049;28;20023;-62
2023/09/13 03:13:03;;;;;;;;;;;;;;;-144.99;100.00;52346.19;5007612;28;20000;-60
2023/09/13 03:15:32;;;;;;;;;;;;;;;-144.99;100.00;52313.56;5006475;28;19958;-61
2023/09/13 03:17:58;;;;;;;;;;;;;;;-144.99;100.00;52317.66;5006851;28;19979;-60
2023/09/13 03:20:25;;;;;;;;;;;;;;;-144.99;100.00;52309.50;5006021;28;20057;-60
2023/09/13 03:22:51;;;;;;;;;;;;;;;-144.99;100.00;52354.34;5005267;28;20073;-60
2023/09/13 03:25:18;;;;;;;;;;;;;;;-144.99;100.00;52338.03;5002341;28;20049;-60
2023/09/13 03:27:44;;;;;;;;;;;;;;;-144.99;100.00;52346.19;5007495;28;19987;-60
2023/09/13 03:30:12;;;;;;;;;;;;;;;-144.99;100.00;52356.38;5005702;28;20034;-60
2023/09/13 03:32:39;;;;;;;;;;;;;;;-144.99;100.00;52317.66;5001905;28;20071;-61
2023/09/13 03:35:06;;;;;;;;;;;;;;;-144.99;100.00;52333.94;5007078;28;20348;-62
2023/09/13 03:37:34;;;;;;;;;;;;;;;-144.99;100.00;52327.84;5007254;28;19951;-61
2023/09/13 03:40:00;;;;;;;;;;;;;;;-144.99;100.00;52374.72;5008306;28;19971;-61
2023/09/13 03:42:27;;;;;;;;;;;;;;;-144.99;100.00;52305.41;5004816;28;20339;-61
2023/09/13 03:44:53;;;;;;;;;;;;;;;-144.99;100.00;52370.63;5009222;28;20014;-66
2023/09/13 03:47:21;;;;;;;;;;;;;;;-144.99;100.00;52317.66;5013814;28;20012;-67
2023/09/13 03:49:48;;;;;;;;;;;;;;;-144.99;100.00;52362.50;5013600;28;20247;-67
2023/09/13 03:52:14;;;;;;;;;;;;;;;-144.99;100.00;52329.88;5011381;28;19973;-67
2023/09/13 03:54:41;;;;;;;;;;;;;;;-144.99;100.00;52329.88;5010427;28;20035;-63
2023/09/13 03:57:07;;;;;;;;;;;;;;;-144.99;100.00;52354.34;5013368;28;20047;-63
2023/09/13 03:59:34;;;;;;;;;;;;;;;-144.99;100.00;52382.88;5012673;28;20044;-63
2023/09/13 04:02:00;;;;;;;;;;;;;;;-144.99;100.00;52393.06;5013385;28;20538;-63
2023/09/13 04:04:28;;;;;;;;;;;;;;;-144.99;100.00;52378.78;5009813;28;20495;-63
2023/09/13 04:06:54;;;;;;;;;;;;;;;-144.99;100.00;52358.41;5013294;28;20042;-63
2023/09/13 04:09:22;;;;;;;;;;;;;;;-144.99;100.00;52342.09;5014727;28;19953;-63
2023/09/13 04:11:49;;;;;;;;;;;;;;;-144.99;100.00;52342.09;5011683;28;19997;-62
2023/09/13 04:14:15;;;;;;;;;;;;;;;-144.99;100.00;52350.25;5007755;28;20001;-63
2023/09/13 04:16:41;;;;;;;;;;;;;;;-144.99;100.00;52356.38;5010161;28;19943;-62
2023/09/13 04:19:08;;;;;;;;;;;;;;;-144.99;100.00;52382.88;5008584;28;19985;-63
2023/09/13 04:21:36;;;;;;;;;;;;;;;-144.99;100.00;52374.72;5011978;28;20000;-69
2023/09/13 04:24:02;;;;;;;;;;;;;;;-144.99;100.00;52348.22;5015672;28;20394;-68
2023/09/13 04:26:29;;;;;;;;;;;;;;;-144.99;100.00;52346.19;5014894;28;20040;-64
2023/09/13 04:28:55;;;;;;;;;;;;;;;-144.99;100.00;52344.16;5022291;28;20044;-63
2023/09/13 04:31:22;;;;;;;;;;;;;;;-144.99;100.00;52364.53;5013841;28;20044;-64
2023/09/13 04:33:49;;;;;;;;;;;;;;;-144.99;100.00;52325.81;5011187;28;19975;-64
2023/09/13 04:36:15;;;;;;;;;;;;;;;-144.99;100.00;52366.56;5020207;28;20044;-63
2023/09/13 04:38:43;;;;;;;;;;;;;;;-144.99;100.00;52329.88;5016234;28;20377;-63
2023/09/13 04:41:14;;;;;;;;;;;;;;;-144.99;100.00;52338.03;5015497;28;20373;-63
2023/09/13 04:43:40;;;;;;;;;;;;;;;-144.99;100.00;52338.03;5014351;28;20039;-63
2023/09/13 04:46:07;;;;;;;;;;;;;;;-144.99;100.00;52331.91;5022364;28;20322;-62
2023/09/13 04:48:34;;;;;;;;;;;;;;;-144.99;100.00;52338.03;5014697;28;20010;-65
2023/09/13 04:51:00;;;;;;;;;;;;;;;-144.99;100.00;52350.25;5018065;28;19950;-64
2023/09/13 04:53:27;;;;;;;;;;;;;;;-144.99;100.00;52374.72;5019028;28;19990;-64
2023/09/13 04:55:55;;;;;;;;;;;;;;;-144.99;100.00;52362.50;5009317;28;20037;-64
2023/09/13 04:58:21;;;;;;;;;;;;;;;-144.99;100.00;52362.50;5008607;28;19991;-68
2023/09/13 05:00:48;;;;;;;;;;;;;;;-144.99;100.00;52336.00;5008796;28;20394;-69
2023/09/13 05:03:15;;;;;;;;;;;;;;;-144.99;100.00;52338.03;5006261;28;20379;-70
2023/09/13 05:05:41;;;;;;;;;;;;;;;-144.99;100.00;52372.69;5004569;28;19947;-69
2023/09/13 05:08:08;;;;;;;;;;;;;;;-144.99;100.00;52356.38;5008028;28;20394;-68
2023/09/13 05:10:34;;;;;;;;;;;;;;;-144.99;100.00;52342.09;5012977;28;19944;-70
2023/09/13 05:13:02;;;;;;;;;;;;;;;-144.99;100.00;52358.41;4661396;28;9999832;-70
2023/09/13 05:15:29;;;;;;;;;;;;;;;-144.99;100.00;52313.56;5002239;28;19988;-71
2023/09/13 05:17:55;;;;;;;;;;;;;;;-144.99;100.00;52366.56;5005507;28;20043;-70
2023/09/13 05:20:24;;;;;;;;;;;;;;;-144.99;100.00;52338.03;5006169;28;19981;-72
2023/09/13 05:22:50;;;;;;;;;;;;;;;-144.99;100.00;52350.25;5008816;28;20081;-71
2023/09/13 05:25:17;;;;;;;;;;;;;;;-144.99;100.00;52325.81;4998555;28;20022;-71
2023/09/13 05:27:43;;;;;;;;;;;;;;;-144.99;100.00;52407.31;5007560;28;20008;-73
2023/09/13 05:30:11;;;;;;;;;;;;;;;-144.99;100.00;52411.41;5008821;28;19998;-73
2023/09/13 05:32:38;;;;;;;;;;;;;;;-144.99;100.00;52366.56;4999650;28;19960;-71
2023/09/13 05:35:05;;;;;;;;;;;;;;;-144.99;100.00;52362.50;5002710;28;20001;-71
2023/09/13 05:37:32;;;;;;;;;;;;;;;-144.99;100.00;52329.88;5005078;28;19953;-72
2023/09/13 05:39:59;;;;;;;;;;;;;;;-144.99;100.00;52370.63;5008721;28;20531;-72
2023/09/13 05:42:25;;;;;;;;;;;;;;;-144.99;100.00;52391.03;5007967;28;19950;-73
2023/09/13 05:44:52;;;;;;;;;;;;;;;-144.99;100.00;52350.25;5007361;28;20656;-73
2023/09/13 05:47:20;;;;;;;;;;;;;;;-144.99;100.00;52370.63;5003495;28;19994;-72
2023/09/13 05:49:46;;;;;;;;;;;;;;;-144.99;100.00;52366.56;5006793;28;20059;-74
2023/09/13 05:52:13;;;;;;;;;;;;;;;-144.99;100.00;52358.41;5006936;28;20039;-72
2023/09/13 05:54:39;;;;;;;;;;;;;;;-144.99;100.00;52358.41;5008358;28;19967;-72
2023/09/13 05:57:06;;;;;;;;;;;;;;;-144.99;100.00;52358.41;5009370;28;19946;-73
2023/09/13 05:59:35;;;;;;;;;;;;;;;-144.99;100.00;52391.03;5005584;28;20283;-72
2023/09/13 06:02:01;;;;;;;;;;;;;;;-144.99;100.00;52391.03;5007929;28;19949;-74
2023/09/13 06:04:29;;;;;;;;;;;;;;;-144.99;100.00;52362.50;5005484;28;20041;-71
2023/09/13 06:06:56;;;;;;;;;;;;;;;-144.99;100.00;52370.63;5004782;28;20010;-73
2023/09/13 06:09:22;;;;;;;;;;;;;;;-144.99;100.00;52376.75;5007484;28;20016;-72
2023/09/13 06:11:49;;;;;;;;;;;;;;;-144.99;100.00;52393.06;5005053;28;20556;-73
2023/09/13 06:14:16;;;;;;;;;;;;;;;-144.99;100.00;52350.25;5007318;28;20408;-78
2023/09/13 06:16:42;;;;;;;;;;;;;;;-144.99;100.00;52378.78;5002740;28;19953;-71
2023/09/13 06:19:09;;;;;;;;;;;;;;;-144.99;100.00;52370.63;5006769;28;20769;-70
2023/09/13 06:21:37;;;;;;;;;;;;;;;-144.99;100.00;52391.03;5005077;28;19959;-72
2023/09/13 06:24:04;;;;;;;;;;;;;;;-144.99;100.00;52358.41;5000364;28;20054;-73
2023/09/13 06:26:30;;;;;;;;;;;;;;;-144.99;100.00;52382.88;5002707;28;19989;-72
2023/09/13 06:28:57;;;;;;;;;;;;;;;-144.99;100.00;52388.97;5004530;28;20042;-71
2023/09/13 06:31:23;;;;;;;;;;;;;;;-144.99;100.00;52388.97;5001675;28;19948;-73
2023/09/13 06:33:50;;;;;;;;;;;;;;;-144.99;100.00;52423.63;5005502;28;20062;-73
2023/09/13 06:36:16;;;;;;;;;;;;;;;-144.99;100.00;52354.34;5005789;28;20031;-73
2023/09/13 06:38:44;;;;;;;;;;;;;;;-144.99;100.00;52378.78;5004107;28;19948;-72
2023/09/13 06:41:11;;;;;;;;;;;;;;;-144.99;100.00;52354.34;5006090;28;20003;-70
2023/09/13 06:43:37;;;;;;;;;;;;;;;-144.99;100.00;52380.84;5006217;28;19965;-71
2023/09/13 06:46:04;;;;;;;;;;;;;;;-144.99;100.00;52368.59;5005203;28;19988;-71
2023/09/13 06:48:31;;;;;;;;;;;;;;;-144.99;100.00;52376.75;5004307;28;20394;-70
2023/09/13 06:50:57;;;;;;;;;;;;;;;-144.99;100.00;52354.34;5003329;28;20417;-72
2023/09/13 06:53:24;;;;;;;;;;;;;;;-144.99;100.00;52368.59;5006155;28;20073;-73
2023/09/13 06:55:52;;;;;;;;;;;;;;;-144.99;100.00;52338.03;5006244;28;19996;-70
2023/09/13 06:58:18;;;;;;;;;;;;;;;-144.99;100.00;52391.03;5006752;28;20086;-71
2023/09/13 07:00:45;;;;;;;;;;;;;;;-144.99;100.00;52391.03;5003290;28;20040;-70
2023/09/13 07:03:11;;;;;;;;;;;;;;;-144.99;100.00;52366.56;5003699;28;20004;-72
2023/09/13 07:05:38;;;;;;;;;;;;;;;-144.99;100.00;52356.38;4980811;28;19962;-74
2023/09/13 07:08:05;;;;;;;;;;;;;;;-144.99;100.00;52382.88;5003897;28;20503;-74
2023/09/13 07:10:31;;;;;;;;;;;;;;;-144.99;100.00;52403.25;5003953;28;19982;-70
2023/09/13 07:12:59;;;;;;;;;;;;;;;-144.99;100.00;52354.34;5006044;28;20059;-70
2023/09/13 07:15:26;;;;;;;;;;;;;;;-144.99;100.00;52362.50;5005676;28;19953;-75
2023/09/13 07:17:53;;;;;;;;;;;;;;;-144.99;100.00;52370.63;5006225;28;20199;-71
2023/09/13 07:20:20;;;;;;;;;;;;;;;-144.99;100.00;52362.50;5001634;28;20313;-70
2023/09/13 07:22:46;;;;;;;;;;;;;;;-144.99;100.00;52395.09;5007773;28;19995;-72
2023/09/13 07:25:13;;;;;;;;;;;;;;;-144.99;100.00;52386.94;4999234;28;20040;-73
2023/09/13 07:27:39;;;;;;;;;;;;;;;-144.99;100.00;52370.63;5005708;28;20066;-73
2023/09/13 07:30:10;;;;;;;;;;;;;;;-144.99;100.00;52358.41;5004146;28;20013;-71
2023/09/13 07:32:36;;;;;;;;;;;;;;;-144.99;100.00;52346.19;5000644;28;19972;-71
2023/09/13 07:35:04;;;;;;;;;;;;;;;-144.99;100.00;52350.25;5006907;28;20022;-74
2023/09/13 07:37:30;;;;;;;;;;;;;;;-144.99;100.00;52331.91;5006491;28;19946;-72
2023/09/13 07:39:58;;;;;;;;;;;;;;;-144.99;100.00;52362.50;5006611;28;20042;-72
2023/09/13 07:42:24;;;;;;;;;;;;;;;-144.99;100.00;52358.41;5005697;28;20435;-72
2023/09/13 07:44:51;;;;;;;;;;;;;;;-144.99;100.00;52399.19;5005066;28;20550;-71
2023/09/13 07:47:18;;;;;;;;;;;;;;;-144.99;100.00;52364.53;5006880;28;19995;-70
2023/09/13 07:49:45;;;;;;;;;;;;;;;-144.99;100.00;52368.59;5006374;28;20050;-73
2023/09/13 07:52:11;;;;;;;;;;;;;;;-144.99;100.00;52384.91;5003112;28;20008;-73
2023/09/13 07:54:38;;;;;;;;;;;;;;;-144.99;100.00;52378.78;5003325;28;19966;-72
2023/09/13 07:57:05;;;;;;;;;;;;;;;-144.99;100.00;52370.63;5006426;28;20408;-75
2023/09/13 07:59:31;;;;;;;;;;;;;;;-144.99;100.00;52384.91;5006658;28;20085;-73
2023/09/13 08:01:58;;;;;;;;;;;;;;;-144.99;100.00;52391.03;5007192;28;20043;-72
2023/09/13 08:04:26;;;;;;;;;;;;;;;-144.99;100.00;52358.41;5002632;28;19966;-71
2023/09/13 08:06:52;;;;;;;;;;;;;;;-144.99;100.00;52399.19;5006819;28;19995;-71
2023/09/13 08:09:19;;;;;;;;;;;;;;;-144.99;100.00;52386.94;5005616;28;20021;-75
2023/09/13 08:11:46;;;;;;;;;;;;;;;-144.99;100.00;52403.25;5004734;28;20482;-71
2023/09/13 08:14:13;;;;;;;;;;;;;;;-144.99;100.00;52331.91;5000282;28;20489;-71
2023/09/13 08:16:40;;;;;;;;;;;;;;;-144.99;100.00;52391.03;5003314;28;19955;-74
2023/09/13 08:19:08;;;;;;;;;;;;;;;-144.99;100.00;52358.41;5006341;28;19974;-73
2023/09/13 08:21:35;;;;;;;;;;;;;;;-144.99;100.00;52391.03;5002718;28;19946;-73
2023/09/13 08:24:03;;;;;;;;;;;;;;;-144.99;100.00;52378.78;4999729;28;19975;-70
2023/09/13 08:26:30;;;;;;;;;;;;;;;-144.99;100.00;52370.63;5004246;28;19984;-73
2023/09/13 08:28:57;;;;;;;;;;;;;;;-144.99;100.00;52391.03;5004906;28;20316;-74
2023/09/13 08:31:23;;;;;;;;;;;;;;;-144.99;100.00;52386.94;5007407;28;20447;-72
2023/09/13 08:33:50;;;;;;;;;;;;;;;-144.99;100.00;52395.09;5009675;28;20047;-76
2023/09/13 08:36:17;;;;;;;;;;;;;;;-144.99;100.00;52352.28;5004895;28;19992;-73
2023/09/13 08:38:45;;;;;;;;;;;;;;;-144.99;100.00;52350.25;5009960;28;19946;-72
2023/09/13 08:41:12;;;;;;;;;;;;;;;-144.99;100.00;52340.06;5009709;28;19943;-76
2023/09/13 08:43:39;;;;;;;;;;;;;;;-144.99;100.00;52358.41;5009172;28;19957;-76
2023/09/13 08:46:07;;;;;;;;;;;;;;;-144.99;100.00;52358.41;5008796;28;19969;-73
2023/09/13 08:48:34;;;;;;;;;;;;;;;-144.99;100.00;52374.72;5003090;28;19957;-73
2023/09/13 08:51:01;;;;;;;;;;;;;;;-144.99;100.00;52374.72;5009535;28;20388;-73
2023/09/13 08:53:28;;;;;;;;;;;;;;;-144.99;100.00;52382.88;5004156;28;20032;-72
2023/09/13 08:55:57;;;;;;;;;;;;;;;-144.99;100.00;52403.25;5009256;28;20020;-70
2023/09/13 08:58:24;;;;;;;;;;;;;;;-144.99;100.00;52362.50;5006940;28;19955;-74
2023/09/13 09:00:52;;;;;;;;;;;;;;;-144.99;100.00;52407.31;5005262;28;20031;-71
2023/09/13 09:03:21;;;;;;;;;;;;;;;-144.99;100.00;52386.94;5008692;28;20483;-73
2023/09/13 09:05:47;;;;;;;;;;;;;;;-144.99;100.00;52358.41;5007529;28;19973;-78
2023/09/13 09:08:14;;;;;;;;;;;;;;;-144.99;100.00;52378.78;5003350;28;20047;-71
2023/09/13 09:10:42;;;;;;;;;;;;;;;-144.99;100.00;52380.84;5007635;28;19956;-73
2023/09/13 09:13:11;;;;;;;;;;;;;;;-144.99;100.00;52358.41;5013118;28;20089;-70
2023/09/13 09:15:39;;;;;;;;;;;;;;;-144.99;100.00;52382.88;5010968;28;20450;-71
2023/09/13 09:18:07;;;;;;;;;;;;;;;-144.99;100.00;52391.03;5007141;28;19945;-72
2023/09/13 09:20:34;;;;;;;;;;;;;;;-144.99;100.00;52350.25;5008804;28;19973;-73
2023/09/13 09:23:01;;;;;;;;;;;;;;;-144.99;100.00;52346.19;5009505;28;20003;-77
2023/09/13 09:25:30;;;;;;;;;;;;;;;-144.99;100.00;52378.78;5029605;28;19953;-83
2023/09/13 09:27:57;;;;;;;;;;;;;;;-144.99;100.00;52350.25;5002448;28;20362;-75
2023/09/13 09:30:31;;;;;;;;;;;;;;;-144.99;100.00;52386.94;5003634;28;20007;-72
2023/09/13 09:33:02;;;;;;;;;;;;;;;-144.99;100.00;52342.09;5019493;28;19961;-75
2023/09/13 09:35:28;;;;;;;;;;;;;;;-144.99;100.00;52354.34;5010380;28;19967;-75
2023/09/13 09:37:55;;;;;;;;;;;;;;;-144.99;100.00;52395.09;5014989;28;19955;-73
2023/09/13 09:40:22;;;;;;;;;;;;;;;-144.99;100.00;52333.94;5008469;28;19981;-75
2023/09/13 09:42:52;;;;;;;;;;;;;;;-144.99;100.00;52342.09;5007200;28;20466;-72
2023/09/13 09:45:18;;;;;;;;;;;;;;;-144.99;100.00;52358.41;5004974;28;19958;-73
2023/09/13 09:47:46;;;;;;;;;;;;;;;-144.99;100.00;52382.88;5007216;28;19948;-71
2023/09/13 09:50:13;;;;;;;;;;;;;;;-144.99;100.00;52346.19;5010877;28;19951;-71
2023/09/13 09:52:40;;;;;;;;;;;;;;;-144.99;100.00;52382.88;4998724;28;20386;-72
2023/09/13 09:55:07;;;;;;;;;;;;;;;-144.99;100.00;52354.34;5009551;28;20517;-73
2023/09/13 09:57:34;;;;;;;;;;;;;;;-144.99;100.00;52358.41;5016389;28;19949;-78
2023/09/13 10:00:00;;;;;;;;;;;;;;;-144.99;100.00;52380.84;5008275;28;20003;-75
2023/09/13 10:02:27;;;;;;;;;;;;;;;-144.99;100.00;52366.56;5010796;28;19954;-72
2023/09/13 10:04:55;;;;;;;;;;;;;;;-144.99;100.00;52354.34;5022183;28;19942;-84
2023/09/13 10:07:21;;;;;;;;;;;;;;;-144.99;100.00;52378.78;5019185;28;19953;-74
2023/09/13 10:09:48;;;;;;;;;;;;;;;-144.99;100.00;52342.09;5007747;28;20486;-77
2023/09/13 10:12:15;;;;;;;;;;;;;;;-144.99;99.33;52358.41;5003614;28;19985;-76
2023/09/13 10:14:42;;;;;;;;;;;;;;;-144.99;98.66;52321.72;5000156;28;20066;-73
2023/09/13 10:17:09;;;;;;;;;;;;;;;-144.99;95.89;52333.94;5007228;28;20465;-75
2023/09/13 10:19:36;;;;;;;;;;;;;;;-144.99;92.70;52289.13;5003337;28;20021;-75
2023/09/13 10:22:04;;;;;;;;;;;;;;;-144.99;91.54;52301.34;5004113;28;20254;-77
2023/09/13 10:24:34;;;;;;;;;;;;;;;-144.99;91.47;52313.56;5006875;28;20429;-77
2023/09/13 10:27:02;;;;;;;;;;;;;;;-144.99;90.49;52325.81;5001372;28;20049;-73
2023/09/13 10:29:32;;;;;;;;;;;;;;;-144.99;89.43;52319.69;5012100;28;19954;-71
2023/09/13 10:32:02;;;;;;;;;;;;;;;-144.99;89.81;52319.69;5010494;28;20393;-74
2023/09/13 10:34:30;;;;;;;;;;;;;;;-144.99;90.58;52336.00;5007156;28;20477;-74
2023/09/13 10:36:59;;;;;;;;;;;;;;;-144.99;90.04;52358.41;4998716;28;20046;-74
2023/09/13 10:39:28;;;;;;;;;;;;;;;-144.99;90.69;52362.50;5004004;28;20023;-71
2023/09/13 10:41:59;;;;;;;;;;;;;;;-144.99;91.16;52313.56;5006219;28;19940;-72
2023/09/13 10:44:25;;;;;;;;;;;;;;;-144.99;90.56;52350.25;5004308;28;20111;-75
2023/09/13 10:46:52;;;;;;;;;;;;;;;-144.99;90.41;52382.88;5006946;28;19949;-75
2023/09/13 10:49:18;;;;;;;;;;;;;;;-144.99;90.60;52372.69;5004746;28;19947;-74
2023/09/13 10:51:46;;;;;;;;;;;;;;;-144.99;90.06;52388.97;5001208;28;19948;-73
2023/09/13 10:54:13;;;;;;;;;;;;;;;-144.99;90.36;52338.03;5003309;28;20288;-72
2023/09/13 10:56:41;;;;;;;;;;;;;;;-144.99;90.81;52358.41;5007971;28;20451;-72
2023/09/13 10:59:09;;;;;;;;;;;;;;;-144.99;91.42;52391.03;5004683;28;20008;-72
2023/09/13 11:01:36;;;;;;;;;;;;;;;-144.99;91.28;52372.69;5005529;28;19953;-73
2023/09/13 11:04:03;;;;;;;;;;;;;;;-144.99;91.65;52372.69;5000769;28;19999;-71
2023/09/13 11:06:31;;;;;;;;;;;;;;;-144.99;92.87;52407.31;5005976;28;20318;-72
2023/09/13 11:09:10;;;;;;;;;;;;;;;-144.99;92.41;52374.72;5009993;28;20017;-72
2023/09/13 11:11:37;;;;;;;;;;;;;;;-144.99;93.08;52395.09;5003381;28;19951;-73
2023/09/13 11:14:11;;;;;;;;;;;;;;;-144.99;93.73;52370.63;5005322;28;20453;-73
2023/09/13 11:16:40;;;;;;;;;;;;;;;-144.99;94.71;52362.50;5005842;28;20052;-73
2023/09/13 11:19:10;;;;;;;;;;;;;;;-144.99;95.41;52407.31;5005435;28;20339;-74
2023/09/13 11:21:46;;;;;;;;;;;;;;;-144.99;96.89;52407.31;5006860;28;20005;-73
2023/09/13 11:24:12;;;;;;;;;;;;;;;-144.99;98.87;52401.22;5007398;28;19964;-73
2023/09/13 11:26:43;;;;;;;;;;;;;;;-144.99;98.94;52411.41;5007497;28;20500;-74
2023/09/13 11:29:23;;;;;;;;;;;;;;;-144.99;99.43;52380.84;5007043;28;19997;-74
2023/09/13 11:31:56;;;;;;;;;;;;;;;-144.99;100.00;52376.75;5002784;28;20370;-73
2023/09/13 11:34:23;;;;;;;;;;;;;;;-144.99;100.00;52411.41;5014994;28;20052;-75
2023/09/13 11:36:54;;;;;;;;;;;;;;;-144.99;100.00;52391.03;5006316;28;20486;-75
2023/09/13 11:39:21;;;;;;;;;;;;;;;-144.99;100.00;52362.50;5004294;28;20390;-72
2023/09/13 11:41:48;;;;;;;;;;;;;;;-144.99;100.00;52403.25;5002973;28;19989;-72
2023/09/13 11:44:14;;;;;;;;;;;;;;;-144.99;100.00;52386.94;5004154;28;20008;-71
2023/09/13 11:46:42;;;;;;;;;;;;;;;-144.99;100.00;52342.09;5009389;28;19999;-70
2023/09/13 11:49:10;;;;;;;;;;;;;;;-144.99;100.00;52431.78;5006775;28;20415;-71
2023/09/13 11:51:46;;;;;;;;;;;;;;;-144.99;100.00;52386.94;4996280;28;19950;-72
2023/09/13 11:54:14;;;;;;;;;;;;;;;-144.99;100.00;52399.19;5002394;28;20055;-74
2023/09/13 11:56:43;;;;;;;;;;;;;;;-144.99;100.00;52395.09;5005421;28;20031;-74
2023/09/13 11:59:10;;;;;;;;;;;;;;;-144.99;100.00;52358.41;5006688;28;20052;-71
2023/09/13 12:01:42;;;;;;;;;;;;;;;-144.99;100.00;52362.50;5006938;28;19954;-76
2023/09/13 12:04:10;;;;;;;;;;;;;;;-144.99;100.00;52327.84;5004647;28;19988;-72
2023/09/13 12:06:43;;;;;;;;;;;;;;;-144.99;100.00;52340.06;5015456;28;20001;-75
2023/09/13 12:09:13;;;;;;;;;;;;;;;-144.99;98.70;52366.56;5007807;28;19950;-71
2023/09/13 12:11:40;;;;;;;;;;;;;;;-144.99;97.61;52372.69;5007502;28;19954;-71
2023/09/13 12:14:08;;;;;;;;;;;;;;;-144.99;98.26;52358.41;5009432;28;20038;-72
2023/09/13 12:16:36;;;;;;;;;;;;;;;-144.99;97.65;52397.13;5006406;28;20071;-75
2023/09/13 12:19:03;;;;;;;;;;;;;;;-144.99;96.20;52399.19;5009451;28;20407;-75